createdAt,value
2022-12-08T00:02:29.994Z,11.60
2022-12-08T00:05:19.934Z,12.20
2022-12-08T00:08:09.601Z,17.00
2022-12-08T00:10:50.792Z,14.40
2022-12-08T00:13:23.026Z,11.00
2022-12-08T00:16:00.711Z,10.50
2022-12-08T00:18:32.829Z,10.60
2022-12-08T00:21:05.152Z,10.00
2022-12-08T00:23:37.267Z,9.50
2022-12-08T00:26:09.803Z,9.40
2022-12-08T00:28:42.078Z,9.70
2022-12-08T00:31:14.641Z,10.30
2022-12-08T00:33:46.820Z,10.20
2022-12-08T00:36:18.973Z,10.60
2022-12-08T00:38:51.104Z,10.00
2022-12-08T00:41:44.656Z,10.80
2022-12-08T00:44:18.943Z,14.20
2022-12-08T00:46:51.996Z,17.30
2022-12-08T00:49:24.442Z,13.80
2022-12-08T00:51:56.717Z,10.30
2022-12-08T00:54:29.009Z,9.70
2022-12-08T00:57:01.149Z,9.50
2022-12-08T00:59:33.330Z,9.90
2022-12-08T01:02:06.007Z,9.40
2022-12-08T01:04:38.264Z,9.90
2022-12-08T01:07:10.968Z,10.30
2022-12-08T01:09:43.151Z,11.00
2022-12-08T01:12:15.319Z,10.70
2022-12-08T01:14:47.705Z,10.10
2022-12-08T01:17:20.356Z,11.00
2022-12-08T01:19:52.581Z,10.70
2022-12-08T01:22:24.749Z,11.60
2022-12-08T01:24:56.999Z,16.70
2022-12-08T01:27:29.134Z,10.10
2022-12-08T01:30:01.317Z,10.20
2022-12-08T01:32:33.589Z,10.50
2022-12-08T01:35:05.888Z,9.90
2022-12-08T01:37:37.996Z,10.20
2022-12-08T01:40:11.724Z,10.10
2022-12-08T01:42:43.869Z,9.60
2022-12-08T01:45:26.396Z,10.40
2022-12-08T01:48:01.952Z,10.60
2022-12-08T01:50:35.438Z,9.90
2022-12-08T01:53:13.318Z,9.60
2022-12-08T01:55:49.896Z,10.40
2022-12-08T01:58:26.756Z,12.90
2022-12-08T02:00:59.351Z,10.40
2022-12-08T02:03:35.641Z,9.00
2022-12-08T02:06:09.628Z,9.70
2022-12-08T02:08:43.333Z,9.90
2022-12-08T02:11:16.051Z,9.80
2022-12-08T02:13:49.760Z,9.90
2022-12-08T02:16:36.433Z,9.90
2022-12-08T02:19:31.809Z,9.70
2022-12-08T02:22:12.488Z,9.70
2022-12-08T02:24:56.310Z,10.20
2022-12-08T02:27:49.206Z,11.80
2022-12-08T02:30:30.178Z,11.10
2022-12-08T02:33:28.886Z,10.10
2022-12-08T02:36:09.535Z,9.70
2022-12-08T02:38:51.125Z,10.90
2022-12-08T02:41:35.863Z,10.00
2022-12-08T02:44:13.935Z,9.90
2022-12-08T02:49:21.040Z,10.00
2022-12-08T02:51:53.996Z,9.80
2022-12-08T02:54:26.353Z,11.30
2022-12-08T02:57:15.724Z,10.90
2022-12-08T03:00:07.733Z,10.50
2022-12-08T03:02:54.457Z,10.70
2022-12-08T03:05:37.596Z,10.40
2022-12-08T03:08:16.320Z,10.40
2022-12-08T03:10:54.278Z,10.90
2022-12-08T03:13:31.890Z,9.40
2022-12-08T03:16:07.848Z,9.50
2022-12-08T03:18:44.415Z,10.50
2022-12-08T03:21:20.484Z,10.50
2022-12-08T03:23:56.584Z,10.70
2022-12-08T03:26:36.426Z,10.90
2022-12-08T03:29:09.342Z,11.10
2022-12-08T03:31:44.920Z,11.40
2022-12-08T03:34:18.342Z,11.60
2022-12-08T03:36:50.876Z,10.50
2022-12-08T03:39:23.419Z,10.80
2022-12-08T03:41:55.601Z,9.30
2022-12-08T03:44:27.913Z,10.20
2022-12-08T03:47:00.119Z,9.80
2022-12-08T03:49:32.393Z,10.20
2022-12-08T03:52:04.797Z,10.10
2022-12-08T03:54:37.037Z,10.30
2022-12-08T03:57:09.356Z,11.60
2022-12-08T03:59:42.141Z,10.90
2022-12-08T04:02:14.522Z,10.70
2022-12-08T04:04:46.878Z,10.60
2022-12-08T04:07:19.164Z,11.00
2022-12-08T04:09:51.396Z,10.40
2022-12-08T04:12:23.729Z,10.20
2022-12-08T04:14:56.036Z,9.70
2022-12-08T04:17:28.500Z,9.30
2022-12-08T04:20:01.057Z,10.50
2022-12-08T04:22:33.407Z,11.50
2022-12-08T04:25:06.772Z,11.50
2022-12-08T04:27:39.080Z,10.40
2022-12-08T04:30:13.051Z,10.80
2022-12-08T04:32:47.528Z,10.20
2022-12-08T04:35:20.107Z,10.50
2022-12-08T04:37:52.996Z,10.70
2022-12-08T04:40:25.322Z,10.50
2022-12-08T04:42:57.634Z,10.50
2022-12-08T04:45:30.020Z,10.40
2022-12-08T04:48:03.258Z,9.40
2022-12-08T04:50:36.286Z,9.40
2022-12-08T04:53:08.590Z,10.10
2022-12-08T04:55:43.915Z,10.40
2022-12-08T04:58:18.301Z,10.90
2022-12-08T05:00:51.535Z,10.60
2022-12-08T05:03:28.558Z,11.40
2022-12-08T05:06:03.886Z,10.70
2022-12-08T05:08:36.579Z,10.00
2022-12-08T05:11:11.326Z,10.80
2022-12-08T05:13:44.041Z,10.40
2022-12-08T05:16:17.057Z,11.50
2022-12-08T05:18:49.292Z,11.30
2022-12-08T05:21:21.568Z,11.20
2022-12-08T05:23:53.979Z,12.40
2022-12-08T05:26:26.841Z,14.30
2022-12-08T05:28:59.388Z,14.00
2022-12-08T05:31:31.784Z,13.10
2022-12-08T05:34:04.137Z,12.40
2022-12-08T05:36:36.421Z,11.40
2022-12-08T05:39:09.025Z,11.90
2022-12-08T05:41:42.057Z,11.30
2022-12-08T05:44:14.583Z,10.60
2022-12-08T05:46:46.695Z,10.00
2022-12-08T05:49:19.290Z,10.50
2022-12-08T05:51:51.532Z,11.00
2022-12-08T05:54:24.108Z,10.90
2022-12-08T05:56:56.592Z,11.40
2022-12-08T05:59:28.798Z,11.30
2022-12-08T06:02:01.096Z,11.50
2022-12-08T06:04:33.459Z,12.30
2022-12-08T06:07:06.246Z,10.90
2022-12-08T06:09:38.655Z,12.10
2022-12-08T06:12:12.160Z,11.80
2022-12-08T06:14:44.903Z,11.90
2022-12-08T06:17:17.313Z,11.30
2022-12-08T06:19:50.360Z,10.90
2022-12-08T06:22:22.703Z,12.50
2022-12-08T06:24:55.007Z,12.20
2022-12-08T06:27:27.910Z,13.60
2022-12-08T06:30:00.615Z,12.60
2022-12-08T06:32:33.244Z,13.50
2022-12-08T06:35:05.762Z,14.40
2022-12-08T06:37:37.964Z,13.30
2022-12-08T06:40:12.570Z,13.70
2022-12-08T06:42:47.447Z,14.60
2022-12-08T06:45:20.684Z,12.90
2022-12-08T06:47:53.011Z,12.90
2022-12-08T06:50:25.540Z,13.80
2022-12-08T06:53:04.899Z,14.20
2022-12-08T06:58:30.124Z,15.70
2022-12-08T07:01:07.914Z,15.30
2022-12-08T07:03:43.591Z,15.50
2022-12-08T07:06:20.658Z,15.10
2022-12-08T07:08:53.246Z,14.50
2022-12-08T07:11:25.577Z,15.20
2022-12-08T07:13:58.476Z,14.50
2022-12-08T07:16:31.501Z,14.50
2022-12-08T07:19:03.710Z,14.40
2022-12-08T07:21:36.160Z,14.30
2022-12-08T07:24:10.603Z,14.90
2022-12-08T07:26:44.111Z,15.20
2022-12-08T07:29:19.356Z,15.40
2022-12-08T07:31:55.235Z,15.10
2022-12-08T07:34:27.713Z,15.10
2022-12-08T07:36:59.901Z,13.90
2022-12-08T07:39:32.415Z,14.40
2022-12-08T07:42:04.698Z,14.90
2022-12-08T07:44:37.175Z,15.10
2022-12-08T07:47:09.653Z,14.60
2022-12-08T07:49:41.959Z,14.20
2022-12-08T07:52:14.446Z,11.80
2022-12-08T07:54:46.671Z,14.70
2022-12-08T07:57:18.933Z,14.70
2022-12-08T07:59:51.416Z,14.30
2022-12-08T08:02:25.609Z,13.80
2022-12-08T08:04:59.113Z,14.70
2022-12-08T08:07:33.463Z,13.40
2022-12-08T08:10:07.277Z,14.90
2022-12-08T08:12:40.630Z,13.80
2022-12-08T08:15:13.568Z,13.10
2022-12-08T08:17:50.122Z,12.80
2022-12-08T08:20:23.521Z,14.10
2022-12-08T08:22:55.666Z,13.70
2022-12-08T08:25:28.040Z,14.20
2022-12-08T08:28:00.163Z,14.30
2022-12-08T08:30:32.621Z,14.30
2022-12-08T08:33:04.887Z,13.20
2022-12-08T08:35:37.522Z,14.20
2022-12-08T08:38:09.950Z,13.30
2022-12-08T08:40:42.140Z,13.30
2022-12-08T08:43:32.936Z,13.40
2022-12-08T08:46:10.131Z,12.40
2022-12-08T08:48:42.502Z,12.60
2022-12-08T08:51:16.572Z,12.60
2022-12-08T08:53:49.546Z,11.90
2022-12-08T08:56:22.474Z,12.10
2022-12-08T08:58:55.364Z,12.50
2022-12-08T09:01:29.397Z,12.50
2022-12-08T09:04:01.820Z,12.90
2022-12-08T09:06:34.889Z,12.60
2022-12-08T09:09:08.482Z,13.30
2022-12-08T09:11:40.624Z,12.50
2022-12-08T09:14:15.481Z,14.30
2022-12-08T09:16:48.087Z,11.80
2022-12-08T09:19:20.457Z,11.40
2022-12-08T09:21:53.008Z,11.90
2022-12-08T09:24:25.538Z,11.10
2022-12-08T09:26:57.885Z,12.20
2022-12-08T09:29:35.908Z,11.40
2022-12-08T09:32:08.858Z,11.90
2022-12-08T09:34:41.360Z,11.50
2022-12-08T09:37:13.617Z,11.50
2022-12-08T09:39:45.892Z,11.60
2022-12-08T09:42:28.225Z,11.80
2022-12-08T09:45:09.946Z,11.50
2022-12-08T09:47:45.170Z,12.00
2022-12-08T09:50:30.481Z,11.20
2022-12-08T09:53:08.577Z,10.50
2022-12-08T09:55:45.404Z,9.60
2022-12-08T09:58:26.811Z,10.10
2022-12-08T10:00:59.407Z,9.50
2022-12-08T10:03:32.903Z,9.60
2022-12-08T10:06:17.798Z,9.40
2022-12-08T10:09:00.028Z,12.40
2022-12-08T10:11:39.482Z,11.20
2022-12-08T10:14:23.323Z,10.00
2022-12-08T10:17:02.363Z,9.90
2022-12-08T10:19:37.538Z,10.90
2022-12-08T10:22:18.711Z,10.90
2022-12-08T10:24:59.122Z,10.70
2022-12-08T10:27:32.613Z,10.30
2022-12-08T10:30:11.064Z,10.20
2022-12-08T10:32:45.599Z,10.10
2022-12-08T10:35:19.561Z,10.00
2022-12-08T10:38:00.604Z,10.30
2022-12-08T10:40:45.459Z,9.30
2022-12-08T10:43:23.186Z,9.30
2022-12-08T10:45:56.138Z,9.40
2022-12-08T10:48:31.705Z,9.10
2022-12-08T10:51:05.772Z,10.20
2022-12-08T10:53:50.408Z,9.50
2022-12-08T10:56:29.142Z,8.80
2022-12-08T10:59:17.845Z,9.40
2022-12-08T11:01:52.434Z,9.60
2022-12-08T11:04:35.358Z,9.60
2022-12-08T11:07:11.094Z,10.00
2022-12-08T11:09:48.987Z,9.00
2022-12-08T11:12:22.853Z,11.10
2022-12-08T11:15:03.804Z,10.60
2022-12-08T11:17:40.624Z,10.30
2022-12-08T11:20:24.579Z,9.70
2022-12-08T11:22:57.745Z,9.90
2022-12-08T11:25:31.149Z,10.00
2022-12-08T11:28:04.258Z,10.70
2022-12-08T11:30:40.231Z,9.50
2022-12-08T11:33:19.561Z,9.50
2022-12-08T11:35:57.017Z,10.10
2022-12-08T11:38:30.934Z,9.30
2022-12-08T11:41:12.467Z,9.20
2022-12-08T11:43:54.613Z,9.00
2022-12-08T11:46:33.851Z,8.40
2022-12-08T11:49:10.786Z,8.50
2022-12-08T11:51:51.040Z,9.40
2022-12-08T11:54:28.817Z,9.70
2022-12-08T11:57:03.144Z,9.00
2022-12-08T11:59:38.552Z,9.60
2022-12-08T12:02:17.419Z,10.30
2022-12-08T12:04:55.027Z,10.60
2022-12-08T12:07:41.898Z,9.60
2022-12-08T12:10:43.979Z,9.30
2022-12-08T12:13:43.442Z,10.00
2022-12-08T12:16:55.633Z,9.90
2022-12-08T12:19:28.691Z,10.40
2022-12-08T12:22:04.301Z,10.90
2022-12-08T12:24:39.938Z,11.80
2022-12-08T12:27:29.511Z,10.70
2022-12-08T12:30:06.125Z,11.80
2022-12-08T12:32:48.326Z,11.80
2022-12-08T12:35:28.473Z,12.10
2022-12-08T12:38:04.521Z,11.30
2022-12-08T12:40:44.806Z,11.60
2022-12-08T12:43:30.042Z,14.10
2022-12-08T12:46:35.381Z,11.90
2022-12-08T12:49:43.786Z,12.00
2022-12-08T12:52:42.670Z,12.60
2022-12-08T12:55:27.402Z,13.30
2022-12-08T12:58:00.266Z,12.20
2022-12-08T13:00:32.577Z,12.70
2022-12-08T13:03:05.459Z,12.10
2022-12-08T13:05:52.345Z,11.60
2022-12-08T13:08:27.690Z,12.70
2022-12-08T13:11:04.605Z,11.70
2022-12-08T13:13:37.486Z,12.40
2022-12-08T13:16:21.599Z,11.20
2022-12-08T13:18:58.430Z,11.30
2022-12-08T13:21:36.479Z,10.90
2022-12-08T13:24:28.220Z,11.60
2022-12-08T13:27:36.195Z,11.60
2022-12-08T13:30:44.118Z,12.00
2022-12-08T13:35:58.019Z,13.40
2022-12-08T13:38:34.010Z,13.70
2022-12-08T13:41:10.530Z,13.40
2022-12-08T13:44:10.576Z,14.10
2022-12-08T13:47:16.839Z,14.80
2022-12-08T13:56:51.277Z,14.20
2022-12-08T13:58:31.788Z,12.70
2022-12-08T14:01:10.364Z,12.40
2022-12-08T14:04:28.489Z,11.70
2022-12-08T14:06:49.777Z,14.50
2022-12-08T14:09:25.094Z,14.30
2022-12-08T14:12:00.304Z,13.20
2022-12-08T14:15:01.848Z,15.40
2022-12-08T14:17:30.205Z,15.70
2022-12-08T14:20:06.787Z,15.20
2022-12-08T14:22:42.366Z,14.50
2022-12-08T14:25:17.969Z,15.50
2022-12-08T14:27:51.372Z,15.30
2022-12-08T14:30:26.221Z,16.50
2022-12-08T14:32:59.828Z,14.40
2022-12-08T14:35:33.548Z,16.80
2022-12-08T14:38:12.932Z,17.90
2022-12-08T14:40:46.702Z,17.10
2022-12-08T14:43:21.838Z,16.00
2022-12-08T14:45:57.268Z,16.40
2022-12-08T14:48:44.626Z,18.60
2022-12-08T14:51:24.823Z,18.90
2022-12-08T14:53:59.812Z,15.10
2022-12-08T14:56:38.467Z,18.20
2022-12-08T14:59:20.245Z,16.40
2022-12-08T15:01:54.906Z,15.70
2022-12-08T15:04:30.107Z,14.70
2022-12-08T15:07:06.222Z,14.30
2022-12-08T15:09:41.751Z,15.90
2022-12-08T15:12:27.346Z,14.20
2022-12-08T15:15:02.977Z,14.80
2022-12-08T15:17:44.195Z,15.00
2022-12-08T15:20:35.882Z,18.30
2022-12-08T15:23:18.883Z,16.50
2022-12-08T15:25:52.206Z,18.10
2022-12-08T15:28:30.108Z,16.20
2022-12-08T15:33:34.271Z,17.50
2022-12-08T15:36:08.526Z,18.70
2022-12-08T15:38:41.462Z,18.60
2022-12-08T15:41:15.280Z,20.60
2022-12-08T15:43:47.903Z,18.30
2022-12-08T15:46:20.242Z,17.30
2022-12-08T15:48:57.916Z,17.00
2022-12-08T15:51:31.106Z,17.50
2022-12-08T15:54:03.516Z,18.90
2022-12-08T15:56:41.203Z,18.40
2022-12-08T15:59:28.695Z,19.50
2022-12-08T16:02:01.064Z,27.90
2022-12-08T16:07:28.436Z,21.80
2022-12-08T16:10:01.457Z,21.10
2022-12-08T16:15:59.850Z,17.50
2022-12-08T16:18:36.075Z,18.20
2022-12-08T16:21:25.534Z,17.50
2022-12-08T16:24:04.625Z,16.60
2022-12-08T16:29:32.271Z,20.30
2022-12-08T16:32:04.709Z,19.20
2022-12-08T16:34:36.910Z,17.10
2022-12-08T16:37:10.130Z,17.80
2022-12-08T16:39:45.769Z,17.20
2022-12-08T16:42:37.903Z,17.60
2022-12-08T16:45:13.207Z,16.20
2022-12-08T16:47:47.356Z,15.70
2022-12-08T16:50:20.267Z,14.80
2022-12-08T16:52:57.060Z,15.70
2022-12-08T16:55:29.585Z,14.60
2022-12-08T16:58:02.726Z,15.30
2022-12-08T17:00:37.190Z,15.80
2022-12-08T17:03:10.997Z,19.50
2022-12-08T17:05:44.774Z,17.30
2022-12-08T17:08:17.094Z,18.10
2022-12-08T17:11:07.314Z,19.10
2022-12-08T17:13:41.897Z,20.80
2022-12-08T17:16:17.786Z,20.60
2022-12-08T17:18:50.787Z,21.20
2022-12-08T17:21:22.994Z,20.40
2022-12-08T17:23:55.137Z,20.00
2022-12-08T17:26:27.327Z,20.30
2022-12-08T17:29:02.674Z,20.20
2022-12-08T17:31:35.244Z,18.80
2022-12-08T17:34:10.449Z,19.60
2022-12-08T17:36:42.844Z,19.50
2022-12-08T17:39:18.650Z,21.00
2022-12-08T17:41:51.318Z,20.10
2022-12-08T17:44:23.463Z,20.30
2022-12-08T17:46:55.585Z,21.00
2022-12-08T17:49:29.837Z,21.10
2022-12-08T17:52:04.716Z,22.10
2022-12-08T17:54:37.049Z,21.40
2022-12-08T17:57:09.198Z,20.70
2022-12-08T17:59:41.355Z,20.60
2022-12-08T18:02:13.896Z,20.00
2022-12-08T18:04:46.181Z,19.40
2022-12-08T18:07:18.376Z,20.40
2022-12-08T18:09:51.930Z,20.40
2022-12-08T18:12:24.189Z,21.30
2022-12-08T18:14:56.488Z,20.60
2022-12-08T18:17:28.951Z,22.30
2022-12-08T18:20:01.152Z,23.50
2022-12-08T18:22:33.348Z,22.70
2022-12-08T18:25:06.854Z,23.00
2022-12-08T18:27:43.137Z,22.70
2022-12-08T18:30:19.206Z,23.00
2022-12-08T18:32:57.093Z,21.70
2022-12-08T18:35:29.544Z,19.60
2022-12-08T18:38:02.075Z,18.90
2022-12-08T18:40:34.499Z,19.70
2022-12-08T18:43:06.693Z,19.40
2022-12-08T18:45:41.407Z,20.50
2022-12-08T18:48:13.590Z,18.50
2022-12-08T18:50:45.939Z,18.70
2022-12-08T18:53:18.957Z,18.80
2022-12-08T18:55:52.062Z,20.10
2022-12-08T18:58:24.447Z,19.40
2022-12-08T19:00:56.640Z,20.20
2022-12-08T19:03:29.618Z,22.50
2022-12-08T19:06:09.004Z,21.50
2022-12-08T19:08:41.389Z,22.10
2022-12-08T19:11:22.396Z,21.20
2022-12-08T19:13:55.712Z,20.60
2022-12-08T19:16:28.173Z,19.30
2022-12-08T19:19:01.979Z,21.30
2022-12-08T19:21:34.572Z,20.20
2022-12-08T19:24:08.175Z,19.40
2022-12-08T19:26:41.399Z,19.30
2022-12-08T19:29:14.338Z,18.50
2022-12-08T19:31:46.726Z,18.50
2022-12-08T19:34:18.976Z,19.80
2022-12-08T19:36:51.289Z,21.80
2022-12-08T19:39:42.971Z,19.50
2022-12-08T19:42:36.322Z,20.20
2022-12-08T19:45:12.375Z,20.40
2022-12-08T19:47:45.171Z,18.30
2022-12-08T19:50:35.775Z,19.60
2022-12-08T19:53:10.142Z,18.60
2022-12-08T19:55:43.047Z,18.70
2022-12-08T19:58:15.192Z,19.00
2022-12-08T20:00:48.188Z,18.30
2022-12-08T20:03:22.220Z,18.20
2022-12-08T20:05:56.368Z,19.20
2022-12-08T20:08:28.787Z,18.70
2022-12-08T20:11:00.984Z,17.90
2022-12-08T20:13:43.890Z,20.00
2022-12-08T20:16:17.254Z,17.60
2022-12-08T20:18:49.467Z,18.30
2022-12-08T20:21:22.143Z,17.00
2022-12-08T20:23:55.599Z,17.60
2022-12-08T20:26:27.770Z,17.40
2022-12-08T20:28:59.969Z,17.10
2022-12-08T20:31:34.388Z,16.80
2022-12-08T20:34:06.894Z,18.40
2022-12-08T20:36:39.057Z,19.50
2022-12-08T20:39:14.627Z,18.90
2022-12-08T20:41:48.194Z,19.70
2022-12-08T20:44:20.726Z,19.20
2022-12-08T20:46:53.061Z,18.60
2022-12-08T20:49:28.544Z,18.50
2022-12-08T20:52:05.271Z,18.10
2022-12-08T20:54:38.162Z,19.00
2022-12-08T20:57:10.469Z,18.60
2022-12-08T20:59:42.686Z,16.50
2022-12-08T21:02:14.984Z,17.70
2022-12-08T21:04:47.313Z,18.20
2022-12-08T21:07:19.707Z,17.80
2022-12-08T21:09:52.877Z,18.60
2022-12-08T21:12:25.129Z,19.60
2022-12-08T21:14:57.942Z,20.30
2022-12-08T21:17:30.429Z,21.50
2022-12-08T21:20:03.081Z,19.80
2022-12-08T21:22:35.521Z,17.20
2022-12-08T21:25:09.250Z,17.60
2022-12-08T21:27:42.059Z,16.80
2022-12-08T21:30:16.244Z,16.60
2022-12-08T21:32:49.446Z,16.30
2022-12-08T21:35:21.870Z,16.10
2022-12-08T21:37:54.247Z,20.00
2022-12-08T21:40:27.105Z,22.00
2022-12-08T21:42:59.357Z,21.70
2022-12-08T21:45:32.656Z,21.10
2022-12-08T21:48:10.967Z,21.70
2022-12-08T21:50:44.157Z,22.60
2022-12-08T21:53:16.561Z,24.80
2022-12-08T21:55:48.806Z,21.20
2022-12-08T21:58:21.552Z,20.40
2022-12-08T22:00:53.890Z,19.90
2022-12-08T22:03:26.863Z,18.40
2022-12-08T22:05:59.529Z,17.30
2022-12-08T22:08:31.827Z,16.80
2022-12-08T22:11:04.630Z,15.60
2022-12-08T22:13:38.650Z,15.50
2022-12-08T22:16:14.926Z,18.60
2022-12-08T22:18:47.175Z,17.10
2022-12-08T22:21:20.332Z,18.20
2022-12-08T22:23:52.727Z,18.90
2022-12-08T22:26:24.992Z,19.10
2022-12-08T22:28:57.314Z,20.30
2022-12-08T22:31:29.835Z,20.70
2022-12-08T22:34:02.105Z,20.50
2022-12-08T22:36:34.399Z,20.30
2022-12-08T22:39:07.128Z,19.30
2022-12-08T22:41:39.527Z,20.10
2022-12-08T22:44:12.697Z,18.90
2022-12-08T22:46:45.897Z,19.00
2022-12-08T22:49:18.135Z,21.70
2022-12-08T22:51:50.304Z,22.10
2022-12-08T22:54:22.647Z,22.70
2022-12-08T22:56:55.347Z,22.10
2022-12-08T22:59:28.052Z,22.60
2022-12-08T23:02:00.331Z,24.20
2022-12-08T23:04:32.886Z,24.90
2022-12-08T23:07:05.562Z,22.30
2022-12-08T23:09:37.673Z,21.00
2022-12-08T23:12:10.613Z,20.30
2022-12-08T23:14:43.234Z,20.20
2022-12-08T23:17:15.663Z,19.30
2022-12-08T23:19:47.887Z,21.00
2022-12-08T23:22:19.956Z,21.00
2022-12-08T23:24:52.289Z,21.40
2022-12-08T23:27:25.068Z,21.30
2022-12-08T23:29:57.331Z,23.30
2022-12-08T23:32:29.572Z,23.20
2022-12-08T23:35:01.807Z,23.20
2022-12-08T23:37:33.981Z,22.80
2022-12-08T23:40:07.865Z,22.80
2022-12-08T23:42:40.282Z,21.90
2022-12-08T23:45:13.601Z,22.60
2022-12-08T23:47:45.710Z,23.50
2022-12-08T23:50:18.268Z,22.60
2022-12-08T23:52:50.946Z,18.50
2022-12-08T23:55:23.506Z,18.80
2022-12-08T23:57:55.664Z,18.90
